DLA2HU LIML-EDDF
Flight info
| Callsign | DLA2HU |
|---|---|
| Flight time | 0h 50m |
| Altitude | 30001 |
| Route | PEPAG1J PEPAG N851 ABESI/N0451F300 N851 UTAVO DCT ROLSA DCT LADOL T163 EMPAX EMPAX5B |
| Aircraft | E195/M-SDE3GILORVW/S |
Departure
| Time | 2026-05-06 14:31 |
|---|---|
| Airport | Milano Linate Airport (LIML) |
Arrival
| Time | 2026-05-06 15:21 |
|---|---|
| Airport | Frankfurt Main Airport (EDDF) |
| Time | Latitude | Longitude | Altitude | Speed | Heading |
|---|---|---|---|---|---|
| 2026-05-06 14:25 | 45.44741 | 9.27955 | 359 ft | 11 kts | 174° |
| 2026-05-06 14:25 | 45.44665 | 9.27961 | 359 ft | 11 kts | 177° |
| 2026-05-06 14:25 | 45.44610 | 9.27965 | 359 ft | 12 kts | 176° |
| 2026-05-06 14:25 | 45.44523 | 9.27973 | 361 ft | 13 kts | 176° |
| 2026-05-06 14:26 | 45.44430 | 9.27983 | 359 ft | 14 kts | 175° |
| 2026-05-06 14:26 | 45.44332 | 9.27995 | 361 ft | 15 kts | 175° |
| 2026-05-06 14:26 | 45.44229 | 9.28005 | 359 ft | 15 kts | 175° |
| 2026-05-06 14:26 | 45.44123 | 9.28017 | 361 ft | 16 kts | 175° |
| 2026-05-06 14:27 | 45.44011 | 9.28031 | 363 ft | 16 kts | 176° |
| 2026-05-06 14:27 | 45.43897 | 9.28043 | 366 ft | 17 kts | 176° |
| 2026-05-06 14:27 | 45.43779 | 9.28055 | 359 ft | 17 kts | 176° |
| 2026-05-06 14:27 | 45.43657 | 9.28067 | 365 ft | 18 kts | 176° |
| 2026-05-06 14:28 | 45.43533 | 9.28080 | 359 ft | 18 kts | 175° |
| 2026-05-06 14:28 | 45.43448 | 9.28014 | 359 ft | 14 kts | 256° |
| 2026-05-06 14:28 | 45.43444 | 9.27959 | 359 ft | 0 kts | 262° |
| 2026-05-06 14:29 | 45.43443 | 9.27958 | 359 ft | 1 kts | 262° |
| 2026-05-06 14:29 | 45.43439 | 9.27913 | 360 ft | 7 kts | 262° |
| 2026-05-06 14:29 | 45.43447 | 9.27842 | 365 ft | 9 kts | 297° |
| 2026-05-06 14:30 | 45.43520 | 9.27812 | 362 ft | 17 kts | 354° |
| 2026-05-06 14:30 | 45.43823 | 9.27780 | 364 ft | 78 kts | 353° |
| 2026-05-06 14:30 | 45.44584 | 9.27696 | 363 ft | 140 kts | 352° |
| 2026-05-06 14:30 | 45.45741 | 9.27597 | 447 ft | 185 kts | 356° |
| 2026-05-06 14:31 | 45.47019 | 9.27422 | 1363 ft | 181 kts | 358° |
| 2026-05-06 14:31 | 45.48344 | 9.27268 | 1901 ft | 204 kts | 357° |
| 2026-05-06 14:31 | 45.49826 | 9.27102 | 2395 ft | 225 kts | 356° |
| 2026-05-06 14:31 | 45.51461 | 9.26909 | 2783 ft | 253 kts | 355° |
| 2026-05-06 14:32 | 45.53231 | 9.26714 | 3614 ft | 263 kts | 354° |
| 2026-05-06 14:32 | 45.55132 | 9.26499 | 4273 ft | 280 kts | 354° |
| 2026-05-06 14:32 | 45.57106 | 9.26268 | 5243 ft | 287 kts | 354° |
| 2026-05-06 14:32 | 45.59105 | 9.26026 | 6240 ft | 289 kts | 354° |
| 2026-05-06 14:33 | 45.61098 | 9.25802 | 7142 ft | 288 kts | 353° |
| 2026-05-06 14:33 | 45.63068 | 9.25307 | 7960 ft | 289 kts | 343° |
| 2026-05-06 14:33 | 45.64992 | 9.24491 | 8853 ft | 293 kts | 341° |
| 2026-05-06 14:33 | 45.66926 | 9.23537 | 9756 ft | 296 kts | 337° |
| 2026-05-06 14:34 | 45.68896 | 9.22560 | 10496 ft | 302 kts | 340° |
| 2026-05-06 14:34 | 45.70986 | 9.21975 | 11220 ft | 311 kts | 352° |
| 2026-05-06 14:34 | 45.73164 | 9.21764 | 11972 ft | 316 kts | 354° |
| 2026-05-06 14:34 | 45.75369 | 9.21510 | 12757 ft | 320 kts | 352° |
| 2026-05-06 14:35 | 45.77597 | 9.21166 | 13590 ft | 324 kts | 351° |
| 2026-05-06 14:35 | 45.79850 | 9.20778 | 14372 ft | 327 kts | 350° |
| 2026-05-06 14:35 | 45.82130 | 9.20370 | 15126 ft | 332 kts | 349° |
| 2026-05-06 14:35 | 45.84433 | 9.19895 | 15851 ft | 338 kts | 345° |
| 2026-05-06 14:36 | 45.86648 | 9.18629 | 16130 ft | 350 kts | 324° |
| 2026-05-06 14:36 | 45.88689 | 9.16661 | 16872 ft | 358 kts | 321° |
| 2026-05-06 14:36 | 45.90732 | 9.14578 | 17724 ft | 363 kts | 320° |
| 2026-05-06 14:36 | 45.92828 | 9.12514 | 18520 ft | 367 kts | 321° |
| 2026-05-06 14:37 | 45.94963 | 9.10452 | 19186 ft | 370 kts | 321° |
| 2026-05-06 14:37 | 45.97114 | 9.08374 | 19894 ft | 374 kts | 322° |
| 2026-05-06 14:37 | 45.99520 | 9.06809 | 20525 ft | 389 kts | 342° |
| 2026-05-06 14:37 | 46.02219 | 9.06203 | 21082 ft | 398 kts | 351° |
| 2026-05-06 14:38 | 46.04998 | 9.05856 | 21662 ft | 403 kts | 351° |
| 2026-05-06 14:38 | 46.07777 | 9.05499 | 22123 ft | 409 kts | 350° |
| 2026-05-06 14:38 | 46.10614 | 9.05082 | 22714 ft | 410 kts | 350° |
| 2026-05-06 14:38 | 46.13468 | 9.04655 | 23287 ft | 414 kts | 350° |
| 2026-05-06 14:39 | 46.16356 | 9.04233 | 23738 ft | 418 kts | 349° |
| 2026-05-06 14:39 | 46.19262 | 9.03816 | 24117 ft | 425 kts | 350° |
| 2026-05-06 14:39 | 46.22176 | 9.03441 | 24910 ft | 420 kts | 350° |
| 2026-05-06 14:39 | 46.25094 | 9.03060 | 25427 ft | 423 kts | 349° |
| 2026-05-06 14:40 | 46.27823 | 9.02693 | 25872 ft | 428 kts | 349° |
| 2026-05-06 14:40 | 46.30808 | 9.02289 | 26324 ft | 433 kts | 349° |
| 2026-05-06 14:40 | 46.33830 | 9.01870 | 26738 ft | 439 kts | 349° |
| 2026-05-06 14:40 | 46.36891 | 9.01460 | 27108 ft | 445 kts | 349° |
| 2026-05-06 14:41 | 46.39997 | 9.01069 | 27440 ft | 451 kts | 349° |
| 2026-05-06 14:41 | 46.43148 | 9.00660 | 27805 ft | 456 kts | 349° |
| 2026-05-06 14:41 | 46.46325 | 9.00243 | 28167 ft | 461 kts | 348° |
| 2026-05-06 14:41 | 46.49488 | 8.99798 | 28564 ft | 463 kts | 348° |
| 2026-05-06 14:42 | 46.52709 | 8.99329 | 28974 ft | 467 kts | 348° |
| 2026-05-06 14:42 | 46.55953 | 8.98840 | 29395 ft | 471 kts | 348° |
| 2026-05-06 14:42 | 46.59227 | 8.98409 | 29738 ft | 474 kts | 348° |
| 2026-05-06 14:42 | 46.62521 | 8.97988 | 30009 ft | 479 kts | 348° |
| 2026-05-06 14:43 | 46.65880 | 8.97544 | 29956 ft | 490 kts | 348° |
| 2026-05-06 14:43 | 46.69306 | 8.97085 | 29947 ft | 500 kts | 348° |
| 2026-05-06 14:43 | 46.76359 | 8.96134 | 29863 ft | 510 kts | 349° |
| 2026-05-06 14:44 | 46.83464 | 8.95175 | 29841 ft | 513 kts | 350° |
| 2026-05-06 14:45 | 46.89677 | 8.94500 | 29900 ft | 511 kts | 349° |
| 2026-05-06 14:45 | 46.96751 | 8.93405 | 29872 ft | 511 kts | 349° |
| 2026-05-06 14:46 | 47.03854 | 8.92482 | 29857 ft | 512 kts | 350° |
| 2026-05-06 14:46 | 47.10897 | 8.91490 | 29875 ft | 508 kts | 349° |
| 2026-05-06 14:47 | 47.17903 | 8.90482 | 29862 ft | 509 kts | 350° |
| 2026-05-06 14:47 | 47.24954 | 8.89501 | 29879 ft | 509 kts | 350° |
| 2026-05-06 14:48 | 47.32013 | 8.88988 | 29884 ft | 510 kts | 358° |
| 2026-05-06 14:48 | 47.39106 | 8.89605 | 29867 ft | 509 kts | 0° |
| 2026-05-06 14:49 | 47.46196 | 8.90195 | 29897 ft | 511 kts | 360° |
| 2026-05-06 14:49 | 47.53270 | 8.90737 | 29875 ft | 509 kts | 360° |
| 2026-05-06 14:50 | 47.60307 | 8.91277 | 29863 ft | 509 kts | 360° |
| 2026-05-06 14:50 | 47.67388 | 8.91814 | 29867 ft | 509 kts | 0° |
| 2026-05-06 14:51 | 47.74495 | 8.92358 | 29864 ft | 507 kts | 0° |
| 2026-05-06 14:51 | 47.81563 | 8.92904 | 29844 ft | 508 kts | 0° |
| 2026-05-06 14:52 | 47.88576 | 8.93445 | 29848 ft | 508 kts | 0° |
| 2026-05-06 14:52 | 47.95631 | 8.93992 | 29849 ft | 508 kts | 0° |
| 2026-05-06 14:53 | 48.02677 | 8.94537 | 29827 ft | 500 kts | 1° |
| 2026-05-06 14:53 | 48.09616 | 8.95078 | 29855 ft | 500 kts | 1° |
| 2026-05-06 14:54 | 48.16545 | 8.95616 | 29843 ft | 498 kts | 2° |
| 2026-05-06 14:54 | 48.23463 | 8.96461 | 29848 ft | 499 kts | 5° |
| 2026-05-06 14:55 | 48.30369 | 8.97613 | 29825 ft | 499 kts | 5° |
| 2026-05-06 14:55 | 48.37259 | 8.98625 | 29828 ft | 496 kts | 5° |
| 2026-05-06 14:56 | 48.44100 | 8.99622 | 29819 ft | 497 kts | 5° |
| 2026-05-06 14:56 | 48.50973 | 9.00631 | 29823 ft | 497 kts | 5° |
| 2026-05-06 14:57 | 48.57730 | 9.01625 | 29793 ft | 468 kts | 5° |
| 2026-05-06 14:57 | 48.60893 | 9.02093 | 29761 ft | 448 kts | 5° |
| 2026-05-06 14:57 | 48.63991 | 9.02556 | 28962 ft | 447 kts | 6° |
| 2026-05-06 14:57 | 48.67017 | 9.03185 | 28958 ft | 433 kts | 9° |
| 2026-05-06 14:58 | 48.69984 | 9.03968 | 28969 ft | 428 kts | 9° |
| 2026-05-06 14:58 | 48.72875 | 9.04730 | 28788 ft | 414 kts | 9° |
| 2026-05-06 14:58 | 48.75692 | 9.05430 | 28355 ft | 419 kts | 9° |
| 2026-05-06 14:58 | 48.78593 | 9.06132 | 28011 ft | 419 kts | 9° |
| 2026-05-06 14:59 | 48.81448 | 9.06818 | 27710 ft | 411 kts | 9° |
| 2026-05-06 14:59 | 48.84305 | 9.07497 | 27237 ft | 420 kts | 9° |
| 2026-05-06 14:59 | 48.87229 | 9.08186 | 26295 ft | 433 kts | 9° |
| 2026-05-06 14:59 | 48.90226 | 9.08866 | 25056 ft | 436 kts | 7° |
| 2026-05-06 15:00 | 48.93251 | 9.09314 | 23770 ft | 439 kts | 4° |
| 2026-05-06 15:00 | 48.96314 | 9.09661 | 22270 ft | 442 kts | 4° |
| 2026-05-06 15:00 | 48.99326 | 9.10034 | 21932 ft | 417 kts | 4° |
| 2026-05-06 15:00 | 49.02172 | 9.10418 | 21054 ft | 408 kts | 5° |
| 2026-05-06 15:01 | 49.04991 | 9.10809 | 20151 ft | 403 kts | 5° |
| 2026-05-06 15:01 | 49.07720 | 9.11193 | 19647 ft | 387 kts | 5° |
| 2026-05-06 15:01 | 49.10355 | 9.11570 | 19157 ft | 375 kts | 5° |
| 2026-05-06 15:01 | 49.12937 | 9.11940 | 18636 ft | 372 kts | 5° |
| 2026-05-06 15:02 | 49.15517 | 9.12309 | 18181 ft | 375 kts | 5° |
| 2026-05-06 15:02 | 49.18126 | 9.12683 | 17624 ft | 376 kts | 4° |
| 2026-05-06 15:02 | 49.20710 | 9.13053 | 17166 ft | 370 kts | 4° |
| 2026-05-06 15:02 | 49.23229 | 9.13414 | 16682 ft | 365 kts | 4° |
| 2026-05-06 15:03 | 49.25738 | 9.13773 | 16182 ft | 361 kts | 4° |
| 2026-05-06 15:03 | 49.28223 | 9.14131 | 15734 ft | 357 kts | 4° |
| 2026-05-06 15:03 | 49.30692 | 9.14599 | 15234 ft | 356 kts | 9° |
| 2026-05-06 15:03 | 49.33107 | 9.15453 | 14760 ft | 354 kts | 14° |
| 2026-05-06 15:04 | 49.35471 | 9.16479 | 14256 ft | 351 kts | 14° |
| 2026-05-06 15:04 | 49.37814 | 9.17440 | 13798 ft | 346 kts | 13° |
| 2026-05-06 15:04 | 49.40140 | 9.18318 | 13309 ft | 341 kts | 12° |
| 2026-05-06 15:04 | 49.42437 | 9.19146 | 12870 ft | 335 kts | 11° |
| 2026-05-06 15:05 | 49.44695 | 9.19950 | 12411 ft | 331 kts | 11° |
| 2026-05-06 15:05 | 49.46922 | 9.20736 | 11965 ft | 326 kts | 11° |
| 2026-05-06 15:05 | 49.49118 | 9.21510 | 11521 ft | 322 kts | 11° |
| 2026-05-06 15:05 | 49.51293 | 9.22281 | 11093 ft | 318 kts | 12° |
| 2026-05-06 15:06 | 49.53410 | 9.23040 | 10852 ft | 308 kts | 12° |
| 2026-05-06 15:06 | 49.55469 | 9.23778 | 10616 ft | 300 kts | 11° |
| 2026-05-06 15:06 | 49.57488 | 9.24500 | 10485 ft | 294 kts | 10° |
| 2026-05-06 15:06 | 49.59483 | 9.25208 | 10410 ft | 295 kts | 11° |
| 2026-05-06 15:07 | 49.61481 | 9.25918 | 10294 ft | 301 kts | 12° |
| 2026-05-06 15:07 | 49.63532 | 9.26657 | 10158 ft | 302 kts | 12° |
| 2026-05-06 15:07 | 49.65572 | 9.27389 | 10040 ft | 299 kts | 11° |
| 2026-05-06 15:07 | 49.67597 | 9.28114 | 9921 ft | 299 kts | 12° |
| 2026-05-06 15:08 | 49.69618 | 9.28842 | 9817 ft | 299 kts | 11° |
| 2026-05-06 15:08 | 49.71635 | 9.29575 | 9776 ft | 296 kts | 12° |
| 2026-05-06 15:08 | 49.73638 | 9.30299 | 9783 ft | 297 kts | 11° |
| 2026-05-06 15:08 | 49.75660 | 9.31026 | 9783 ft | 300 kts | 11° |
| 2026-05-06 15:09 | 49.77683 | 9.31747 | 9752 ft | 299 kts | 11° |
| 2026-05-06 15:09 | 49.79708 | 9.32472 | 9783 ft | 298 kts | 11° |
| 2026-05-06 15:09 | 49.81729 | 9.33197 | 9781 ft | 299 kts | 11° |
| 2026-05-06 15:09 | 49.83765 | 9.33926 | 9789 ft | 300 kts | 11° |
| 2026-05-06 15:10 | 49.85815 | 9.34070 | 9808 ft | 292 kts | 346° |
| 2026-05-06 15:10 | 49.87645 | 9.32757 | 9725 ft | 292 kts | 320° |
| 2026-05-06 15:10 | 49.89124 | 9.30566 | 8969 ft | 297 kts | 309° |
| 2026-05-06 15:10 | 49.90434 | 9.28262 | 8715 ft | 273 kts | 309° |
| 2026-05-06 15:11 | 49.91705 | 9.26159 | 8532 ft | 262 kts | 310° |
| 2026-05-06 15:11 | 49.92550 | 9.24806 | 8399 ft | 256 kts | 311° |
| 2026-05-06 15:11 | 49.94186 | 9.22214 | 8214 ft | 254 kts | 311° |
| 2026-05-06 15:11 | 49.95431 | 9.20250 | 8070 ft | 256 kts | 312° |
| 2026-05-06 15:12 | 49.96687 | 9.18279 | 7889 ft | 257 kts | 312° |
| 2026-05-06 15:12 | 49.97944 | 9.16300 | 7715 ft | 257 kts | 311° |
| 2026-05-06 15:12 | 49.98793 | 9.14965 | 7575 ft | 256 kts | 311° |
| 2026-05-06 15:12 | 50.00040 | 9.13005 | 7417 ft | 254 kts | 311° |
| 2026-05-06 15:13 | 50.01262 | 9.11096 | 7219 ft | 242 kts | 311° |
| 2026-05-06 15:13 | 50.02401 | 9.09312 | 7046 ft | 223 kts | 311° |
| 2026-05-06 15:13 | 50.03468 | 9.07633 | 6877 ft | 217 kts | 311° |
| 2026-05-06 15:13 | 50.04492 | 9.06020 | 6833 ft | 204 kts | 310° |
| 2026-05-06 15:14 | 50.05496 | 9.04437 | 6678 ft | 214 kts | 310° |
| 2026-05-06 15:14 | 50.06555 | 9.02768 | 6433 ft | 217 kts | 311° |
| 2026-05-06 15:14 | 50.07619 | 9.01098 | 6223 ft | 217 kts | 311° |
| 2026-05-06 15:14 | 50.08684 | 8.99432 | 5992 ft | 217 kts | 310° |
| 2026-05-06 15:15 | 50.09745 | 8.97770 | 5753 ft | 216 kts | 310° |
| 2026-05-06 15:15 | 50.10806 | 8.96110 | 5521 ft | 215 kts | 310° |
| 2026-05-06 15:15 | 50.11740 | 8.94319 | 5266 ft | 211 kts | 296° |
| 2026-05-06 15:15 | 50.12233 | 8.92265 | 5006 ft | 195 kts | 277° |
| 2026-05-06 15:16 | 50.12226 | 8.90248 | 4749 ft | 179 kts | 256° |
| 2026-05-06 15:16 | 50.11710 | 8.88567 | 4501 ft | 168 kts | 234° |
| 2026-05-06 15:16 | 50.11030 | 8.87115 | 4237 ft | 164 kts | 235° |
| 2026-05-06 15:16 | 50.10451 | 8.85588 | 3986 ft | 164 kts | 244° |
| 2026-05-06 15:17 | 50.10010 | 8.83988 | 4034 ft | 163 kts | 248° |
| 2026-05-06 15:17 | 50.09604 | 8.82309 | 4054 ft | 164 kts | 249° |
| 2026-05-06 15:17 | 50.09214 | 8.80636 | 4021 ft | 166 kts | 249° |
| 2026-05-06 15:17 | 50.08788 | 8.78891 | 3674 ft | 174 kts | 248° |
| 2026-05-06 15:18 | 50.08325 | 8.77153 | 3308 ft | 171 kts | 247° |
| 2026-05-06 15:18 | 50.07889 | 8.75476 | 3006 ft | 166 kts | 248° |
| 2026-05-06 15:18 | 50.07449 | 8.73847 | 2709 ft | 161 kts | 247° |
| 2026-05-06 15:18 | 50.06975 | 8.72222 | 2230 ft | 170 kts | 250° |
| 2026-05-06 15:19 | 50.06503 | 8.70542 | 1950 ft | 164 kts | 248° |
| 2026-05-06 15:19 | 50.06127 | 8.68951 | 1759 ft | 153 kts | 252° |
| 2026-05-06 15:19 | 50.05844 | 8.67386 | 1521 ft | 146 kts | 260° |
| 2026-05-06 15:19 | 50.05620 | 8.65862 | 1158 ft | 142 kts | 257° |
| 2026-05-06 15:20 | 50.05356 | 8.64433 | 938 ft | 132 kts | 253° |
| 2026-05-06 15:20 | 50.05097 | 8.63092 | 771 ft | 126 kts | 254° |
| 2026-05-06 15:20 | 50.04719 | 8.61704 | 731 ft | 147 kts | 252° |
| 2026-05-06 15:20 | 50.04346 | 8.60141 | 571 ft | 157 kts | 254° |
| 2026-05-06 15:21 | 50.03985 | 8.58597 | 359 ft | 148 kts | 255° |
| 2026-05-06 15:21 | 50.03674 | 8.57258 | 348 ft | 118 kts | 250° |
| 2026-05-06 15:21 | 50.03428 | 8.56224 | 352 ft | 87 kts | 250° |
| 2026-05-06 15:21 | 50.03311 | 8.55672 | 346 ft | 24 kts | 265° |
| 2026-05-06 15:22 | 50.03321 | 8.55426 | 348 ft | 22 kts | 281° |
| 2026-05-06 15:22 | 50.03355 | 8.55204 | 350 ft | 17 kts | 301° |
| 2026-05-06 15:22 | 50.03437 | 8.55238 | 344 ft | 15 kts | 66° |
| 2026-05-06 15:22 | 50.03475 | 8.55401 | 345 ft | 17 kts | 70° |
| 2026-05-06 15:23 | 50.03518 | 8.55578 | 346 ft | 18 kts | 69° |
| 2026-05-06 15:23 | 50.03564 | 8.55770 | 352 ft | 20 kts | 70° |
| 2026-05-06 15:23 | 50.03613 | 8.55976 | 350 ft | 21 kts | 69° |
| 2026-05-06 15:23 | 50.03664 | 8.56193 | 349 ft | 22 kts | 70° |
| 2026-05-06 15:24 | 50.03719 | 8.56423 | 353 ft | 23 kts | 69° |
| 2026-05-06 15:24 | 50.03776 | 8.56665 | 345 ft | 24 kts | 70° |
| 2026-05-06 15:24 | 50.03839 | 8.56917 | 347 ft | 25 kts | 68° |
| 2026-05-06 15:24 | 50.03898 | 8.57182 | 352 ft | 26 kts | 71° |
| 2026-05-06 15:25 | 50.03967 | 8.57450 | 352 ft | 27 kts | 69° |
| 2026-05-06 15:25 | 50.04033 | 8.57733 | 349 ft | 28 kts | 69° |
| 2026-05-06 15:25 | 50.04104 | 8.58023 | 348 ft | 29 kts | 69° |
| 2026-05-06 15:25 | 50.04176 | 8.58321 | 348 ft | 30 kts | 70° |
| 2026-05-06 15:26 | 50.04245 | 8.58628 | 347 ft | 28 kts | 71° |
| 2026-05-06 15:26 | 50.04281 | 8.58775 | 344 ft | 13 kts | 70° |
| 2026-05-06 15:26 | 50.04313 | 8.58914 | 352 ft | 14 kts | 70° |
| 2026-05-06 15:26 | 50.04341 | 8.59023 | 344 ft | 9 kts | 69° |
| 2026-05-06 15:27 | 50.04367 | 8.59126 | 347 ft | 11 kts | 69° |
| 2026-05-06 15:27 | 50.04397 | 8.59246 | 344 ft | 13 kts | 69° |
| 2026-05-06 15:27 | 50.04431 | 8.59384 | 351 ft | 14 kts | 69° |
| 2026-05-06 15:27 | 50.04503 | 8.59474 | 344 ft | 15 kts | 359° |
| 2026-05-06 15:28 | 50.04612 | 8.59464 | 344 ft | 16 kts | 355° |
| 2026-05-06 15:28 | 50.04708 | 8.59438 | 347 ft | 13 kts | 345° |
| 2026-05-06 15:28 | 50.04799 | 8.59388 | 346 ft | 13 kts | 339° |
| 2026-05-06 15:28 | 50.04872 | 8.59372 | 349 ft | 6 kts | 40° |
| 2026-05-06 15:29 | 50.04879 | 8.59382 | 347 ft | 0 kts | 49° |
| 2026-05-06 15:29 | 50.04878 | 8.59402 | 346 ft | 3 kts | 99° |
| 2026-05-06 15:29 | 50.04865 | 8.59439 | 351 ft | 5 kts | 120° |
| 2026-05-06 15:29 | 50.04843 | 8.59492 | 344 ft | 7 kts | 122° |
| 2026-05-06 15:30 | 50.04843 | 8.59569 | 349 ft | 8 kts | 72° |
| 2026-05-06 15:30 | 50.04865 | 8.59659 | 352 ft | 10 kts | 69° |
| 2026-05-06 15:30 | 50.04890 | 8.59768 | 349 ft | 12 kts | 71° |
| 2026-05-06 15:30 | 50.04920 | 8.59894 | 349 ft | 13 kts | 69° |
| 2026-05-06 15:31 | 50.04942 | 8.59918 | 352 ft | 3 kts | 342° |
| 2026-05-06 15:31 | 50.04954 | 8.59890 | 348 ft | 3 kts | 296° |
| 2026-05-06 15:31 | 50.04960 | 8.59873 | 346 ft | 1 kts | 297° |
| 2026-05-06 15:32 | 50.04961 | 8.59870 | 346 ft | 0 kts | 297° |